createdAt,value
2018-11-12T00:01:13.552Z,8.63
2018-11-12T00:03:42.095Z,15.37
2018-11-12T00:06:10.892Z,11.77
2018-11-12T00:08:39.498Z,10.20
2018-11-12T00:11:08.115Z,12.33
2018-11-12T00:13:36.669Z,13.67
2018-11-12T00:16:05.633Z,11.73
2018-11-12T00:18:34.568Z,11.73
2018-11-12T00:21:03.245Z,10.23
2018-11-12T00:23:31.958Z,12.90
2018-11-12T00:26:00.577Z,11.50
2018-11-12T00:28:29.166Z,10.03
2018-11-12T00:30:57.781Z,8.83
2018-11-12T00:33:26.468Z,11.50
2018-11-12T00:35:55.227Z,8.77
2018-11-12T00:38:25.230Z,11.47
2018-11-12T00:40:53.846Z,12.77
2018-11-12T00:43:22.400Z,11.73
2018-11-12T00:45:51.015Z,9.43
2018-11-12T00:48:19.569Z,8.77
2018-11-12T00:50:48.125Z,11.20
2018-11-12T00:53:16.797Z,12.20
2018-11-12T00:55:45.462Z,10.67
2018-11-12T00:58:14.036Z,11.83
2018-11-12T01:00:42.658Z,10.60
2018-11-12T01:03:11.273Z,11.07
2018-11-12T01:05:40.026Z,15.80
2018-11-12T01:08:08.632Z,12.53
2018-11-12T01:10:37.193Z,12.33
2018-11-12T01:13:05.754Z,13.10
2018-11-12T01:15:34.595Z,13.33
2018-11-12T01:18:03.117Z,9.97
2018-11-12T01:20:31.724Z,11.80
2018-11-12T01:23:00.328Z,12.60
2018-11-12T01:25:28.995Z,10.23
2018-11-12T01:27:57.555Z,11.00
2018-11-12T01:30:26.263Z,11.33
2018-11-12T01:32:54.786Z,10.87
2018-11-12T01:35:23.429Z,13.77
2018-11-12T01:37:52.028Z,15.97
2018-11-12T01:40:20.680Z,11.17
2018-11-12T01:42:49.354Z,10.93
2018-11-12T01:45:19.271Z,11.00
2018-11-12T01:47:48.916Z,14.60
2018-11-12T01:50:18.229Z,13.63
2018-11-12T01:52:47.793Z,11.37
2018-11-12T01:55:17.521Z,11.93
2018-11-12T01:57:46.208Z,13.33
2018-11-12T02:00:17.582Z,13.27
2018-11-12T02:02:47.181Z,13.23
2018-11-12T02:05:16.058Z,14.17
2018-11-12T02:07:44.633Z,14.60
2018-11-12T02:10:14.396Z,14.50
2018-11-12T02:12:43.135Z,16.90
2018-11-12T02:15:14.726Z,17.37
2018-11-12T02:17:44.350Z,16.83
2018-11-12T02:20:15.108Z,13.63
2018-11-12T02:22:45.131Z,13.17
2018-11-12T02:25:14.328Z,12.80
2018-11-12T02:27:43.031Z,14.40
2018-11-12T02:30:16.069Z,16.93
2018-11-12T02:32:44.822Z,19.53
2018-11-12T02:35:13.910Z,17.67
2018-11-12T02:37:44.220Z,16.40
2018-11-12T02:40:13.505Z,15.90
2018-11-12T02:42:43.013Z,16.33
2018-11-12T02:45:12.736Z,15.80
2018-11-12T02:47:42.197Z,19.23
2018-11-12T02:50:13.365Z,19.83
2018-11-12T02:52:42.281Z,17.83
2018-11-12T02:55:12.608Z,15.97
2018-11-12T02:57:41.965Z,19.30
2018-11-12T03:00:21.925Z,16.33
2018-11-12T03:02:50.781Z,18.83
2018-11-12T03:05:19.399Z,16.80
2018-11-12T03:07:48.634Z,18.33
2018-11-12T03:10:20.472Z,20.10
2018-11-12T03:12:49.074Z,20.37
2018-11-12T03:15:18.551Z,17.20
2018-11-12T03:17:47.703Z,18.00
2018-11-12T03:20:17.552Z,16.07
2018-11-12T03:22:46.140Z,17.00
2018-11-12T03:25:16.081Z,20.33
2018-11-12T03:27:45.501Z,19.33
2018-11-12T03:30:16.393Z,19.87
2018-11-12T03:32:45.566Z,16.93
2018-11-12T03:35:14.684Z,17.50
2018-11-12T03:37:44.303Z,15.83
2018-11-12T03:40:16.096Z,17.57
2018-11-12T03:42:45.202Z,17.17
2018-11-12T03:45:14.964Z,18.03
2018-11-12T03:47:43.571Z,20.50
2018-11-12T03:50:15.119Z,20.20
2018-11-12T03:52:43.789Z,20.17
2018-11-12T03:55:15.576Z,21.80
2018-11-12T03:57:44.152Z,22.60
2018-11-12T04:00:17.143Z,15.90
2018-11-12T04:02:45.634Z,20.13
2018-11-12T04:05:14.245Z,20.03
2018-11-12T04:07:42.930Z,19.53
2018-11-12T04:10:14.826Z,19.37
2018-11-12T04:12:43.383Z,22.37
2018-11-12T04:15:14.306Z,19.73
2018-11-12T04:17:42.911Z,25.63
2018-11-12T04:20:13.062Z,22.13
2018-11-12T04:22:42.063Z,21.27
2018-11-12T04:25:11.876Z,23.13
2018-11-12T04:27:40.420Z,23.07
2018-11-12T04:30:12.247Z,21.90
2018-11-12T04:32:41.343Z,21.40
2018-11-12T04:35:10.337Z,25.17
2018-11-12T04:37:38.889Z,24.47
2018-11-12T04:40:09.771Z,20.10
2018-11-12T04:42:38.899Z,24.40
2018-11-12T04:45:08.878Z,22.47
2018-11-12T04:47:37.406Z,22.83
2018-11-12T04:50:09.073Z,24.90
2018-11-12T04:52:37.637Z,27.60
2018-11-12T04:55:07.422Z,23.57
2018-11-12T04:57:36.196Z,29.50
2018-11-12T05:00:06.496Z,26.47
2018-11-12T05:02:35.099Z,24.00
2018-11-12T05:05:04.210Z,26.97
2018-11-12T05:07:32.778Z,28.67
2018-11-12T05:10:01.323Z,24.73
2018-11-12T05:12:29.865Z,30.30
2018-11-12T05:14:58.565Z,26.33
2018-11-12T05:17:27.992Z,26.60
2018-11-12T05:19:56.668Z,28.10
2018-11-12T05:22:25.307Z,33.57
2018-11-12T05:24:54.871Z,31.47
2018-11-12T05:27:23.498Z,29.03
2018-11-12T05:29:52.092Z,30.33
2018-11-12T05:32:20.668Z,28.47
2018-11-12T05:34:49.404Z,26.37
2018-11-12T05:37:17.919Z,28.77
2018-11-12T05:39:46.544Z,28.63
2018-11-12T05:42:15.410Z,27.00
2018-11-12T05:44:44.049Z,30.20
2018-11-12T05:47:12.561Z,32.10
2018-11-12T05:49:41.091Z,28.03
2018-11-12T05:52:09.648Z,26.27
2018-11-12T05:54:38.194Z,28.30
2018-11-12T05:57:06.612Z,26.87
2018-11-12T05:59:35.273Z,30.33
2018-11-12T06:02:04.025Z,29.03
2018-11-12T06:04:32.823Z,25.33
2018-11-12T06:07:02.122Z,30.73
2018-11-12T06:09:30.697Z,30.73
2018-11-12T06:11:59.250Z,28.37
2018-11-12T06:14:27.839Z,27.37
2018-11-12T06:16:56.592Z,33.23
2018-11-12T06:19:25.260Z,27.47
2018-11-12T06:21:53.892Z,30.10
2018-11-12T06:24:22.480Z,31.00
2018-11-12T06:26:51.154Z,30.20
2018-11-12T06:29:19.669Z,34.83
2018-11-12T06:31:48.225Z,32.40
2018-11-12T06:34:16.984Z,34.93
2018-11-12T06:36:45.533Z,31.27
2018-11-12T06:39:14.076Z,32.70
2018-11-12T06:41:42.718Z,33.70
2018-11-12T06:44:11.368Z,34.57
2018-11-12T06:46:40.032Z,32.87
2018-11-12T06:49:08.567Z,31.37
2018-11-12T06:51:37.124Z,30.37
2018-11-12T06:54:07.321Z,31.77
2018-11-12T06:56:36.589Z,32.13
2018-11-12T06:59:05.269Z,35.60
2018-11-12T07:01:33.862Z,28.90
2018-11-12T07:04:02.409Z,31.37
2018-11-12T07:06:31.157Z,32.77
2018-11-12T07:08:59.583Z,28.27
2018-11-12T07:11:28.148Z,36.37
2018-11-12T07:13:56.732Z,32.53
2018-11-12T07:16:25.312Z,32.23
2018-11-12T07:18:53.842Z,31.57
2018-11-12T07:21:22.390Z,36.60
2018-11-12T07:23:50.862Z,30.80
2018-11-12T07:26:19.390Z,30.80
2018-11-12T07:28:47.971Z,35.23
2018-11-12T07:31:16.530Z,32.73
2018-11-12T07:33:45.136Z,33.47
2018-11-12T07:36:13.752Z,32.53
2018-11-12T07:38:42.485Z,40.13
2018-11-12T07:41:11.052Z,35.40
2018-11-12T07:43:39.637Z,33.97
2018-11-12T07:46:08.457Z,31.97
2018-11-12T07:48:37.173Z,28.90
2018-11-12T07:51:05.788Z,29.63
2018-11-12T07:53:34.424Z,31.40
2018-11-12T07:56:03.196Z,30.33
2018-11-12T07:58:31.759Z,31.20
2018-11-12T08:01:00.367Z,30.50
2018-11-12T08:03:28.986Z,31.27
2018-11-12T08:05:57.757Z,27.13
2018-11-12T08:08:26.604Z,28.13
2018-11-12T08:10:55.443Z,28.93
2018-11-12T08:13:24.160Z,28.73
2018-11-12T08:15:52.931Z,29.30
2018-11-12T08:18:22.096Z,31.33
2018-11-12T08:20:50.726Z,27.53
2018-11-12T08:23:19.239Z,25.87
2018-11-12T08:25:47.837Z,24.13
2018-11-12T08:28:16.384Z,31.03
2018-11-12T08:30:44.957Z,28.80
2018-11-12T08:33:13.652Z,30.77
2018-11-12T08:35:42.255Z,20.70
2018-11-12T08:38:10.882Z,29.53
2018-11-12T08:40:39.474Z,28.53
2018-11-12T08:43:07.979Z,26.27
2018-11-12T08:45:36.838Z,24.90
2018-11-12T08:48:05.853Z,22.73
2018-11-12T08:50:34.413Z,24.17
2018-11-12T08:53:03.220Z,24.63
2018-11-12T08:55:32.038Z,24.30
2018-11-12T08:58:01.915Z,21.23
2018-11-12T09:00:30.552Z,20.70
2018-11-12T09:03:00.172Z,19.93
2018-11-12T09:05:29.842Z,23.87
2018-11-12T09:07:59.779Z,21.40
2018-11-12T09:10:30.765Z,21.60
2018-11-12T09:12:59.380Z,22.50
2018-11-12T09:15:28.199Z,22.13
2018-11-12T09:17:56.807Z,19.03
2018-11-12T09:20:26.620Z,17.13
2018-11-12T09:22:55.610Z,18.13
2018-11-12T09:25:25.527Z,15.43
2018-11-12T09:27:54.108Z,15.90
2018-11-12T09:30:26.902Z,17.53
2018-11-12T09:32:55.471Z,13.80
2018-11-12T09:35:25.960Z,14.30
2018-11-12T09:37:55.471Z,13.20
2018-11-12T09:40:27.363Z,11.47
2018-11-12T09:42:55.911Z,18.57
2018-11-12T09:45:24.527Z,18.27
2018-11-12T09:47:53.084Z,12.53
2018-11-12T09:50:22.930Z,15.90
2018-11-12T09:52:52.743Z,14.93
2018-11-12T09:55:22.589Z,14.70
2018-11-12T09:58:07.653Z,13.17
2018-11-12T10:00:36.636Z,13.27
2018-11-12T10:03:06.062Z,11.77
2018-11-12T10:05:35.221Z,14.10
2018-11-12T10:08:07.697Z,10.63
2018-11-12T10:10:41.621Z,11.67
2018-11-12T10:13:10.812Z,9.03
2018-11-12T10:15:40.481Z,9.23
2018-11-12T10:18:09.206Z,10.00
2018-11-12T10:20:34.891Z,7.97
2018-11-12T10:23:03.450Z,8.20
2018-11-12T10:25:32.103Z,6.83
2018-11-12T10:28:00.638Z,7.10
2018-11-12T10:30:29.154Z,6.97
2018-11-12T10:32:57.815Z,8.50
2018-11-12T10:35:26.520Z,10.20
2018-11-12T10:37:55.178Z,10.67
2018-11-12T10:40:24.754Z,10.90
2018-11-12T10:42:53.453Z,8.30
2018-11-12T10:45:22.272Z,7.97
2018-11-12T10:47:52.618Z,10.33
2018-11-12T10:50:21.615Z,9.37
2018-11-12T10:52:50.170Z,8.97
2018-11-12T10:55:21.049Z,8.60
2018-11-12T10:57:49.819Z,7.67
2018-11-12T11:00:29.301Z,6.60
2018-11-12T11:03:05.464Z,7.47
2018-11-12T11:05:34.625Z,8.40
2018-11-12T11:08:03.260Z,5.43
2018-11-12T11:10:32.170Z,7.17
2018-11-12T11:13:01.984Z,8.10
2018-11-12T11:15:31.355Z,6.43
2018-11-12T11:17:59.900Z,7.10
2018-11-12T11:20:28.535Z,8.50
2018-11-12T11:22:57.503Z,6.60
2018-11-12T11:25:26.195Z,9.33
2018-11-12T11:27:54.735Z,6.47
2018-11-12T11:30:23.350Z,7.57
2018-11-12T11:32:51.892Z,8.57
2018-11-12T11:35:20.939Z,11.40
2018-11-12T11:37:49.628Z,9.40
2018-11-12T11:40:19.647Z,8.43
2018-11-12T11:42:48.197Z,8.27
2018-11-12T11:45:17.628Z,8.43
2018-11-12T11:47:47.174Z,9.87
2018-11-12T11:50:17.039Z,11.87
2018-11-12T11:52:45.571Z,12.40
2018-11-12T11:55:16.374Z,9.17
2018-11-12T11:57:45.240Z,13.63
2018-11-12T12:00:17.944Z,10.90
2018-11-12T12:02:47.441Z,12.77
2018-11-12T12:05:17.007Z,12.03
2018-11-12T12:07:46.582Z,10.47
2018-11-12T12:10:15.968Z,7.87
2018-11-12T12:12:45.202Z,9.23
2018-11-12T12:15:15.163Z,10.80
2018-11-12T12:17:44.020Z,8.77
2018-11-12T12:20:15.074Z,8.17
2018-11-12T12:22:43.710Z,7.33
2018-11-12T12:25:14.649Z,8.07
2018-11-12T12:27:43.781Z,8.97
2018-11-12T12:30:19.595Z,9.80
2018-11-12T12:32:49.148Z,9.50
2018-11-12T12:35:17.714Z,11.53
2018-11-12T12:37:46.807Z,7.53
2018-11-12T12:40:16.695Z,8.17
2018-11-12T12:42:45.313Z,4.60
2018-11-12T12:45:15.386Z,5.77
2018-11-12T12:47:44.055Z,5.50
2018-11-12T12:50:13.616Z,5.30
2018-11-12T12:52:42.553Z,6.90
2018-11-12T12:55:12.306Z,6.20
2018-11-12T12:57:41.422Z,7.53
2018-11-12T13:00:11.978Z,7.30
2018-11-12T13:02:41.042Z,8.20
2018-11-12T13:05:09.835Z,7.03
2018-11-12T13:07:38.975Z,9.13
2018-11-12T13:10:09.234Z,6.10
2018-11-12T13:12:37.845Z,6.17
2018-11-12T13:15:08.906Z,6.47
2018-11-12T13:17:37.520Z,4.53
2018-11-12T13:20:07.628Z,5.27
2018-11-12T13:22:36.333Z,4.33
2018-11-12T13:25:06.176Z,5.37
2018-11-12T13:27:34.742Z,5.67
2018-11-12T13:30:03.433Z,5.00
2018-11-12T13:32:32.003Z,6.70
2018-11-12T13:35:00.707Z,6.77
2018-11-12T13:37:29.369Z,5.10
2018-11-12T13:39:58.395Z,4.57
2018-11-12T13:42:27.567Z,5.03
2018-11-12T13:44:56.540Z,4.30
2018-11-12T13:47:25.232Z,5.17
2018-11-12T13:49:53.768Z,4.80
2018-11-12T13:52:22.359Z,6.83
2018-11-12T13:54:51.041Z,4.90
2018-11-12T13:57:19.807Z,5.63
2018-11-12T13:59:48.420Z,4.43
2018-11-12T14:02:17.118Z,4.73
2018-11-12T14:04:45.723Z,4.70
2018-11-12T14:07:14.329Z,3.33
2018-11-12T14:09:42.872Z,3.80
2018-11-12T14:12:11.405Z,4.37
2018-11-12T14:14:40.154Z,4.03
2018-11-12T14:17:08.812Z,4.30
2018-11-12T14:19:37.553Z,4.60
2018-11-12T14:22:06.310Z,6.87
2018-11-12T14:24:34.971Z,10.40
2018-11-12T14:27:03.549Z,6.57
2018-11-12T14:29:32.193Z,7.07
2018-11-12T14:32:00.912Z,18.30
2018-11-12T14:34:29.636Z,7.80
2018-11-12T14:36:58.273Z,6.63
2018-11-12T14:39:26.863Z,6.23
2018-11-12T14:41:55.490Z,6.33
2018-11-12T14:44:24.130Z,6.20
2018-11-12T14:46:52.701Z,5.93
2018-11-12T14:49:21.324Z,8.70
2018-11-12T14:51:49.901Z,6.47
2018-11-12T14:54:18.677Z,7.37
2018-11-12T14:56:47.361Z,8.60
2018-11-12T14:59:16.147Z,6.90
2018-11-12T15:01:44.934Z,7.50
2018-11-12T15:04:13.488Z,7.87
2018-11-12T15:06:41.994Z,7.37
2018-11-12T15:09:11.438Z,8.10
2018-11-12T15:11:40.456Z,7.87
2018-11-12T15:14:10.415Z,9.33
2018-11-12T15:16:39.540Z,8.73
2018-11-12T15:19:09.175Z,9.53
2018-11-12T15:21:37.774Z,9.17
2018-11-12T15:24:07.012Z,7.93
2018-11-12T15:26:35.625Z,9.93
2018-11-12T15:29:04.305Z,10.67
2018-11-12T15:31:32.943Z,9.40
2018-11-12T15:34:01.541Z,9.63
2018-11-12T15:36:30.182Z,11.63
2018-11-12T15:38:58.947Z,17.80
2018-11-12T15:41:27.636Z,11.13
2018-11-12T15:43:56.194Z,10.00
2018-11-12T15:46:24.876Z,10.13
2018-11-12T15:48:53.511Z,10.27
2018-11-12T15:51:22.086Z,10.13
2018-11-12T15:53:51.304Z,9.93
2018-11-12T15:56:19.887Z,11.50
2018-11-12T15:58:48.580Z,10.57
2018-11-12T16:01:17.413Z,8.33
2018-11-12T16:03:46.232Z,10.20
2018-11-12T16:06:15.153Z,9.83
2018-11-12T16:08:43.933Z,9.50
2018-11-12T16:11:12.684Z,9.77
2018-11-12T16:13:41.440Z,9.00
2018-11-12T16:16:10.328Z,10.33
2018-11-12T16:18:39.041Z,12.00
2018-11-12T16:21:07.718Z,9.17
2018-11-12T16:23:36.318Z,8.13
2018-11-12T16:26:05.166Z,8.97
2018-11-12T16:28:33.846Z,10.60
2018-11-12T16:31:02.476Z,11.40
2018-11-12T16:33:31.300Z,11.80
2018-11-12T16:36:00.537Z,10.77
2018-11-12T16:38:29.117Z,11.73
2018-11-12T16:40:57.913Z,10.00
2018-11-12T16:43:26.647Z,12.00
2018-11-12T16:45:55.364Z,11.43
2018-11-12T16:48:23.960Z,13.07
2018-11-12T16:50:52.677Z,14.93
2018-11-12T16:53:21.410Z,13.87
2018-11-12T16:55:50.052Z,15.50
2018-11-12T16:58:18.767Z,16.73
2018-11-12T17:00:47.479Z,13.37
2018-11-12T17:03:17.016Z,13.37
2018-11-12T17:05:45.835Z,12.73
2018-11-12T17:08:14.574Z,11.40
2018-11-12T17:10:43.238Z,12.33
2018-11-12T17:13:11.931Z,11.63
2018-11-12T17:15:40.845Z,13.30
2018-11-12T17:18:09.568Z,11.67
2018-11-12T17:20:38.525Z,13.60
2018-11-12T17:23:07.720Z,13.20
2018-11-12T17:25:36.432Z,11.73
2018-11-12T17:28:05.085Z,12.23
2018-11-12T17:30:33.697Z,15.27
2018-11-12T17:33:02.376Z,12.83
2018-11-12T17:35:31.852Z,12.83
2018-11-12T17:38:00.637Z,15.20
2018-11-12T17:40:29.687Z,13.10
2018-11-12T17:42:58.397Z,12.10
2018-11-12T17:45:28.168Z,11.73
2018-11-12T17:47:57.720Z,15.53
2018-11-12T17:50:26.358Z,12.23
2018-11-12T17:52:54.970Z,11.23
2018-11-12T17:55:23.636Z,12.23
2018-11-12T17:57:52.238Z,10.50
2018-11-12T18:00:33.662Z,13.50
2018-11-12T18:03:02.362Z,11.67
2018-11-12T18:05:31.096Z,11.73
2018-11-12T18:07:59.711Z,12.83
2018-11-12T18:10:28.426Z,14.43
2018-11-12T18:12:57.207Z,17.97
2018-11-12T18:15:26.016Z,17.03
2018-11-12T18:17:54.719Z,15.63
2018-11-12T18:20:26.618Z,16.73
2018-11-12T18:22:55.899Z,13.57
2018-11-12T18:25:24.901Z,15.53
2018-11-12T18:27:54.033Z,13.13
2018-11-12T18:30:24.505Z,16.00
2018-11-12T18:32:54.408Z,15.57
2018-11-12T18:35:23.160Z,13.13
2018-11-12T18:37:51.784Z,15.23
2018-11-12T18:40:21.972Z,13.97
2018-11-12T18:42:50.644Z,17.47
2018-11-12T18:45:20.834Z,16.00
2018-11-12T18:47:50.760Z,16.93
2018-11-12T18:50:21.490Z,12.07
2018-11-12T18:52:50.372Z,13.50
2018-11-12T18:55:19.119Z,13.87
2018-11-12T18:57:48.622Z,15.40
2018-11-12T19:00:18.584Z,20.33
2018-11-12T19:02:47.484Z,14.33
2018-11-12T19:05:19.544Z,16.57
2018-11-12T19:07:49.650Z,15.77
2018-11-12T19:10:21.031Z,14.80
2018-11-12T19:12:50.162Z,15.53
2018-11-12T19:15:22.353Z,14.33
2018-11-12T19:17:54.255Z,13.70
2018-11-12T19:20:23.030Z,17.63
2018-11-12T19:22:51.686Z,14.33
2018-11-12T19:25:20.380Z,15.23
2018-11-12T19:27:48.963Z,17.63
2018-11-12T19:30:19.925Z,18.67
2018-11-12T19:32:48.612Z,14.30
2018-11-12T19:35:18.625Z,14.80
2018-11-12T19:37:47.270Z,14.50
2018-11-12T19:40:22.868Z,16.50
2018-11-12T19:42:52.637Z,15.40
2018-11-12T19:45:21.293Z,13.47
2018-11-12T19:47:51.854Z,13.93
2018-11-12T19:50:22.749Z,14.90
2018-11-12T19:52:52.728Z,14.03
2018-11-12T19:55:21.473Z,15.80
2018-11-12T19:57:50.046Z,13.37
2018-11-12T20:00:21.216Z,14.00
2018-11-12T20:02:50.938Z,16.30
2018-11-12T20:05:19.661Z,15.73
2018-11-12T20:07:48.482Z,14.33
2018-11-12T20:10:21.264Z,15.10
2018-11-12T20:12:49.840Z,14.30
2018-11-12T20:15:19.817Z,18.87
2018-11-12T20:17:49.305Z,17.07
2018-11-12T20:20:24.663Z,14.77
2018-11-12T20:22:53.530Z,17.83
2018-11-12T20:25:22.786Z,14.60
2018-11-12T20:27:53.271Z,12.87
2018-11-12T20:30:25.907Z,16.83
2018-11-12T20:32:54.432Z,15.73
2018-11-12T20:35:23.138Z,14.00
2018-11-12T20:37:51.861Z,14.50
2018-11-12T20:40:20.499Z,13.83
2018-11-12T20:42:49.607Z,13.07
2018-11-12T20:45:19.839Z,12.60
2018-11-12T20:47:49.764Z,14.87
2018-11-12T20:50:18.699Z,15.83
2018-11-12T20:52:47.514Z,15.53
2018-11-12T20:55:18.195Z,12.33
2018-11-12T20:57:46.863Z,11.07
2018-11-12T21:00:18.863Z,12.07
2018-11-12T21:02:49.640Z,22.10
2018-11-12T21:05:19.892Z,16.87
2018-11-12T21:07:48.795Z,26.00
2018-11-12T21:10:18.450Z,38.13
2018-11-12T21:12:47.814Z,16.57
2018-11-12T21:15:17.760Z,12.77
2018-11-12T21:17:46.570Z,15.60
2018-11-12T21:20:16.276Z,17.50
2018-11-12T21:22:44.925Z,12.07
2018-11-12T21:25:15.205Z,16.00
2018-11-12T21:27:43.708Z,14.93
2018-11-12T21:30:16.467Z,16.60
2018-11-12T21:32:45.468Z,15.50
2018-11-12T21:35:16.226Z,14.57
2018-11-12T21:37:46.497Z,14.43
2018-11-12T21:40:18.737Z,13.97
2018-11-12T21:42:47.319Z,11.10
2018-11-12T21:45:17.464Z,20.83
2018-11-12T21:47:46.156Z,26.33
2018-11-12T21:50:16.138Z,15.70
2018-11-12T21:52:45.698Z,17.73
2018-11-12T21:55:14.495Z,16.47
2018-11-12T21:57:43.710Z,12.27
2018-11-12T22:00:18.668Z,15.80
2018-11-12T22:02:48.623Z,13.40
2018-11-12T22:05:17.246Z,12.57
2018-11-12T22:07:45.869Z,11.73
2018-11-12T22:10:16.121Z,11.87
2018-11-12T22:12:46.144Z,11.17
2018-11-12T22:15:14.722Z,14.03
2018-11-12T22:17:43.348Z,12.47
2018-11-12T22:20:13.301Z,10.73
2018-11-12T22:22:42.307Z,13.73
2018-11-12T22:25:12.550Z,12.87
2018-11-12T22:27:41.778Z,14.10
2018-11-12T22:30:12.804Z,9.53
2018-11-12T22:32:41.324Z,12.17
2018-11-12T22:35:10.250Z,10.83
2018-11-12T22:37:38.807Z,11.90
2018-11-12T22:40:08.856Z,11.73
2018-11-12T22:42:37.628Z,10.93
2018-11-12T22:45:07.676Z,11.07
2018-11-12T22:47:36.171Z,11.43
2018-11-12T22:50:05.485Z,12.10
2018-11-12T22:52:34.060Z,10.23
2018-11-12T22:55:02.745Z,11.53
2018-11-12T22:57:31.446Z,9.33
2018-11-12T22:59:59.979Z,9.80
2018-11-12T23:02:28.572Z,9.87
2018-11-12T23:04:57.196Z,10.80
2018-11-12T23:07:25.835Z,13.03
2018-11-12T23:09:54.324Z,10.73
2018-11-12T23:12:22.920Z,13.07
2018-11-12T23:14:51.630Z,12.63
2018-11-12T23:17:20.330Z,10.80
2018-11-12T23:19:49.013Z,9.53
2018-11-12T23:22:17.424Z,11.37
2018-11-12T23:24:46.005Z,10.27
2018-11-12T23:27:14.477Z,11.63
2018-11-12T23:29:42.940Z,12.90
2018-11-12T23:32:11.424Z,13.67
2018-11-12T23:34:40.021Z,11.77
2018-11-12T23:37:08.534Z,12.03
2018-11-12T23:39:37.065Z,10.53
2018-11-12T23:42:06.142Z,10.87
2018-11-12T23:44:34.724Z,14.13
2018-11-12T23:47:07.262Z,9.87
2018-11-12T23:49:35.846Z,9.47
2018-11-12T23:52:04.585Z,10.53
2018-11-12T23:54:33.118Z,11.33
2018-11-12T23:57:01.651Z,13.70
2018-11-12T23:59:30.132Z,12.00
